createdAt,value
2019-06-20T00:01:36.668Z,4.07
2019-06-20T00:04:05.306Z,4.77
2019-06-20T00:06:33.905Z,4.00
2019-06-20T00:09:02.431Z,4.50
2019-06-20T00:11:31.206Z,5.03
2019-06-20T00:13:59.779Z,5.17
2019-06-20T00:16:28.482Z,5.03
2019-06-20T00:18:57.101Z,5.20
2019-06-20T00:21:25.580Z,5.07
2019-06-20T00:23:54.137Z,4.63
2019-06-20T00:26:22.597Z,4.27
2019-06-20T00:28:51.094Z,5.00
2019-06-20T00:31:19.630Z,4.77
2019-06-20T00:33:48.202Z,4.63
2019-06-20T00:36:16.735Z,4.70
2019-06-20T00:38:45.302Z,4.83
2019-06-20T00:41:13.923Z,5.80
2019-06-20T00:43:42.537Z,5.63
2019-06-20T00:46:11.217Z,6.57
2019-06-20T00:48:39.723Z,5.70
2019-06-20T00:51:08.334Z,6.73
2019-06-20T00:53:36.870Z,6.20
2019-06-20T00:56:06.172Z,6.83
2019-06-20T00:58:34.786Z,5.43
2019-06-20T01:01:03.377Z,6.03
2019-06-20T01:03:32.232Z,5.77
2019-06-20T01:06:00.798Z,5.63
2019-06-20T01:08:29.335Z,6.00
2019-06-20T01:10:57.898Z,5.30
2019-06-20T01:13:33.561Z,5.10
2019-06-20T01:15:56.571Z,5.03
2019-06-20T01:18:25.115Z,4.63
2019-06-20T01:20:53.677Z,5.10
2019-06-20T01:23:22.274Z,5.30
2019-06-20T01:25:50.847Z,4.77
2019-06-20T01:28:19.455Z,4.83
2019-06-20T01:30:48.615Z,5.17
2019-06-20T01:33:17.138Z,4.53
2019-06-20T01:35:47.029Z,4.60
2019-06-20T01:38:15.495Z,4.50
2019-06-20T01:40:44.321Z,4.50
2019-06-20T01:43:12.943Z,4.60
2019-06-20T01:45:41.533Z,4.60
2019-06-20T01:48:10.069Z,5.10
2019-06-20T01:50:38.562Z,4.63
2019-06-20T01:53:07.109Z,4.40
2019-06-20T01:55:35.689Z,4.00
2019-06-20T01:58:04.279Z,4.53
2019-06-20T02:00:48.026Z,4.30
2019-06-20T02:03:17.019Z,5.43
2019-06-20T02:05:45.928Z,3.90
2019-06-20T02:08:15.000Z,4.33
2019-06-20T02:10:43.704Z,4.70
2019-06-20T02:13:12.240Z,5.00
2019-06-20T02:15:40.923Z,4.57
2019-06-20T02:18:09.738Z,3.90
2019-06-20T02:20:49.951Z,3.43
2019-06-20T02:23:18.613Z,3.70
2019-06-20T02:25:47.153Z,3.37
2019-06-20T02:28:16.095Z,4.80
2019-06-20T02:30:44.985Z,3.17
2019-06-20T02:33:13.619Z,3.43
2019-06-20T02:35:42.161Z,3.00
2019-06-20T02:38:10.805Z,3.07
2019-06-20T02:40:40.217Z,3.40
2019-06-20T02:43:08.838Z,2.97
2019-06-20T02:45:37.729Z,3.30
2019-06-20T02:48:07.105Z,3.27
2019-06-20T02:50:35.709Z,3.20
2019-06-20T02:53:05.335Z,3.50
2019-06-20T02:55:33.935Z,3.30
2019-06-20T02:58:02.699Z,3.43
2019-06-20T03:00:36.992Z,3.50
2019-06-20T03:03:05.632Z,3.40
2019-06-20T03:05:34.199Z,3.60
2019-06-20T03:08:03.009Z,2.93
2019-06-20T03:10:31.577Z,3.60
2019-06-20T03:13:00.157Z,3.13
2019-06-20T03:15:28.678Z,3.07
2019-06-20T03:17:57.228Z,3.23
2019-06-20T03:20:25.855Z,3.37
2019-06-20T03:22:54.430Z,2.97
2019-06-20T03:25:23.331Z,2.60
2019-06-20T03:27:51.870Z,2.90
2019-06-20T03:30:20.677Z,2.70
2019-06-20T03:32:49.238Z,3.00
2019-06-20T03:35:17.966Z,3.10
2019-06-20T03:37:50.020Z,3.27
2019-06-20T03:40:17.179Z,3.20
2019-06-20T03:42:46.079Z,2.90
2019-06-20T03:45:15.274Z,3.50
2019-06-20T03:47:43.958Z,3.13
2019-06-20T03:50:13.673Z,3.00
2019-06-20T03:52:42.222Z,3.13
2019-06-20T03:55:11.897Z,3.10
2019-06-20T03:57:40.512Z,2.90
2019-06-20T04:00:11.007Z,2.50
2019-06-20T04:02:39.546Z,3.57
2019-06-20T04:05:09.282Z,2.90
2019-06-20T04:07:37.757Z,2.83
2019-06-20T04:10:06.956Z,2.70
2019-06-20T04:12:36.299Z,2.80
2019-06-20T04:15:18.635Z,3.03
2019-06-20T04:17:36.703Z,2.93
2019-06-20T04:20:06.138Z,2.73
2019-06-20T04:22:34.679Z,2.63
2019-06-20T04:25:03.316Z,2.93
2019-06-20T04:27:31.869Z,2.70
2019-06-20T04:30:00.468Z,3.27
2019-06-20T04:32:29.102Z,2.50
2019-06-20T04:34:57.639Z,2.60
2019-06-20T04:37:26.207Z,2.50
2019-06-20T04:39:54.747Z,2.70
2019-06-20T04:42:23.439Z,2.60
2019-06-20T04:44:53.622Z,2.80
2019-06-20T04:47:22.267Z,2.73
2019-06-20T04:49:50.809Z,2.63
2019-06-20T04:52:19.366Z,2.60
2019-06-20T04:54:47.906Z,2.80
2019-06-20T04:57:16.411Z,2.87
2019-06-20T04:59:45.415Z,2.10
2019-06-20T05:02:15.038Z,2.37
2019-06-20T05:04:43.737Z,3.23
2019-06-20T05:07:21.367Z,3.03
2019-06-20T05:09:49.907Z,2.97
2019-06-20T05:12:18.479Z,3.00
2019-06-20T05:14:47.036Z,2.70
2019-06-20T05:17:15.582Z,3.10
2019-06-20T05:19:44.048Z,2.80
2019-06-20T05:22:12.588Z,2.77
2019-06-20T05:24:41.080Z,2.20
2019-06-20T05:27:09.624Z,2.60
2019-06-20T05:29:38.187Z,3.07
2019-06-20T05:32:06.729Z,2.90
2019-06-20T05:34:35.565Z,2.80
2019-06-20T05:37:04.107Z,3.03
2019-06-20T05:39:32.678Z,3.67
2019-06-20T05:42:01.231Z,3.57
2019-06-20T05:44:29.813Z,3.80
2019-06-20T05:47:11.961Z,3.10
2019-06-20T05:49:28.890Z,3.30
2019-06-20T05:51:57.428Z,3.17
2019-06-20T05:54:26.360Z,3.20
2019-06-20T05:56:54.897Z,3.30
2019-06-20T05:59:23.470Z,3.23
2019-06-20T06:01:55.367Z,3.97
2019-06-20T06:04:22.237Z,3.67
2019-06-20T06:06:50.743Z,2.80
2019-06-20T06:09:19.306Z,3.17
2019-06-20T06:11:47.866Z,3.27
2019-06-20T06:14:16.504Z,3.23
2019-06-20T06:16:45.843Z,3.23
2019-06-20T06:19:14.513Z,3.30
2019-06-20T06:21:42.983Z,3.50
2019-06-20T06:24:11.567Z,3.13
2019-06-20T06:26:40.140Z,3.20
2019-06-20T06:29:08.701Z,3.40
2019-06-20T06:31:37.258Z,2.93
2019-06-20T06:34:05.895Z,3.00
2019-06-20T06:36:34.479Z,3.30
2019-06-20T06:39:03.286Z,3.33
2019-06-20T06:41:31.756Z,3.10
2019-06-20T06:44:00.349Z,2.50
2019-06-20T06:46:42.978Z,3.07
2019-06-20T06:48:59.120Z,3.20
2019-06-20T06:51:28.781Z,3.27
2019-06-20T06:53:58.165Z,2.50
2019-06-20T06:56:27.394Z,3.10
2019-06-20T06:58:55.950Z,3.40
2019-06-20T07:01:24.656Z,2.80
2019-06-20T07:03:53.198Z,3.33
2019-06-20T07:06:21.787Z,3.60
2019-06-20T07:08:50.332Z,3.27
2019-06-20T07:11:18.910Z,3.47
2019-06-20T07:13:47.516Z,3.33
2019-06-20T07:16:16.814Z,3.80
2019-06-20T07:18:45.795Z,3.40
2019-06-20T07:21:14.502Z,2.77
2019-06-20T07:23:43.108Z,3.10
2019-06-20T07:26:11.759Z,3.17
2019-06-20T07:28:40.295Z,3.53
2019-06-20T07:31:09.056Z,3.17
2019-06-20T07:33:37.595Z,3.10
2019-06-20T07:36:06.699Z,3.20
2019-06-20T07:38:35.262Z,3.40
2019-06-20T07:41:03.891Z,3.27
2019-06-20T07:43:32.433Z,3.37
2019-06-20T07:46:02.983Z,3.03
2019-06-20T07:48:31.189Z,3.03
2019-06-20T07:50:59.765Z,2.70
2019-06-20T07:53:28.363Z,3.30
2019-06-20T07:55:56.894Z,2.80
2019-06-20T07:58:25.479Z,2.53
2019-06-20T08:00:54.062Z,2.50
2019-06-20T08:03:22.603Z,2.77
2019-06-20T08:05:51.204Z,2.80
2019-06-20T08:08:19.765Z,2.40
2019-06-20T08:10:48.394Z,2.50
2019-06-20T08:13:16.938Z,2.97
2019-06-20T08:15:45.818Z,2.77
2019-06-20T08:18:14.329Z,2.37
2019-06-20T08:20:42.862Z,2.30
2019-06-20T08:23:11.481Z,2.90
2019-06-20T08:25:40.186Z,2.63
2019-06-20T08:28:08.796Z,2.70
2019-06-20T08:30:38.910Z,2.53
2019-06-20T08:33:11.997Z,2.40
2019-06-20T08:35:39.420Z,2.50
2019-06-20T08:38:08.045Z,2.20
2019-06-20T08:40:42.943Z,3.07
2019-06-20T08:43:11.540Z,3.10
2019-06-20T08:45:42.313Z,2.00
2019-06-20T08:48:11.992Z,2.27
2019-06-20T08:50:42.952Z,2.20
2019-06-20T08:53:11.843Z,2.20
2019-06-20T08:55:40.567Z,2.20
2019-06-20T08:58:09.519Z,2.27
2019-06-20T09:00:39.081Z,2.67
2019-06-20T09:03:07.982Z,2.50
2019-06-20T09:05:46.206Z,2.57
2019-06-20T09:08:14.672Z,2.57
2019-06-20T09:10:43.382Z,1.93
2019-06-20T09:13:12.699Z,2.70
2019-06-20T09:15:42.720Z,2.43
2019-06-20T09:18:11.895Z,2.40
2019-06-20T09:20:40.494Z,2.40
2019-06-20T09:23:09.015Z,2.30
2019-06-20T09:25:37.660Z,2.40
2019-06-20T09:28:07.346Z,2.37
2019-06-20T09:30:37.070Z,2.40
2019-06-20T09:33:05.852Z,2.80
2019-06-20T09:35:34.611Z,2.90
2019-06-20T09:38:03.530Z,3.13
2019-06-20T09:40:32.355Z,2.60
2019-06-20T09:43:00.950Z,2.57
2019-06-20T09:45:29.676Z,2.90
2019-06-20T09:47:58.482Z,2.80
2019-06-20T09:50:27.214Z,2.90
2019-06-20T09:52:56.662Z,3.00
2019-06-20T09:55:25.418Z,2.93
2019-06-20T09:57:54.070Z,2.80
2019-06-20T10:00:25.661Z,2.93
2019-06-20T10:02:55.892Z,2.50
2019-06-20T10:05:25.159Z,2.70
2019-06-20T10:07:54.529Z,2.60
2019-06-20T10:10:28.778Z,2.60
2019-06-20T10:12:57.968Z,2.50
2019-06-20T10:15:28.426Z,2.30
2019-06-20T10:17:57.099Z,3.00
2019-06-20T10:20:26.123Z,3.27
2019-06-20T10:22:55.756Z,2.70
2019-06-20T10:25:24.773Z,2.43
2019-06-20T10:27:53.674Z,2.13
2019-06-20T10:30:25.109Z,2.27
2019-06-20T10:32:53.727Z,2.37
2019-06-20T10:35:22.650Z,2.93
2019-06-20T10:37:52.763Z,2.67
2019-06-20T10:40:23.675Z,2.60
2019-06-20T10:42:52.926Z,2.50
2019-06-20T10:45:24.254Z,2.67
2019-06-20T10:47:53.181Z,3.17
2019-06-20T10:50:23.488Z,1.93
2019-06-20T10:52:52.771Z,2.80
2019-06-20T10:55:22.174Z,2.70
2019-06-20T10:57:51.910Z,2.13
2019-06-20T11:00:30.819Z,2.50
2019-06-20T11:02:52.122Z,3.00
2019-06-20T11:05:22.008Z,3.30
2019-06-20T11:07:51.117Z,3.13
2019-06-20T11:10:21.567Z,3.53
2019-06-20T11:12:55.050Z,3.40
2019-06-20T11:15:21.262Z,3.33
2019-06-20T11:17:49.895Z,3.00
2019-06-20T11:20:19.125Z,3.33
2019-06-20T11:22:48.048Z,3.30
2019-06-20T11:25:19.384Z,3.80
2019-06-20T11:27:48.016Z,3.73
2019-06-20T11:30:27.874Z,3.90
2019-06-20T11:32:56.411Z,3.30
2019-06-20T11:35:25.022Z,3.80
2019-06-20T11:37:53.586Z,3.27
2019-06-20T11:40:22.366Z,3.50
2019-06-20T11:42:50.925Z,3.63
2019-06-20T11:45:19.785Z,3.13
2019-06-20T11:47:48.343Z,3.07
2019-06-20T11:50:17.937Z,2.83
2019-06-20T11:52:46.504Z,2.90
2019-06-20T11:55:15.988Z,2.30
2019-06-20T11:57:44.739Z,2.50
2019-06-20T12:00:13.755Z,2.97
2019-06-20T12:02:43.958Z,2.50
2019-06-20T12:05:13.154Z,2.53
2019-06-20T12:07:43.548Z,2.10
2019-06-20T12:10:14.292Z,1.93
2019-06-20T12:12:42.863Z,2.27
2019-06-20T12:15:12.746Z,2.07
2019-06-20T12:17:43.255Z,1.80
2019-06-20T12:20:12.494Z,2.30
2019-06-20T12:22:41.724Z,1.93
2019-06-20T12:25:13.250Z,2.30
2019-06-20T12:27:43.179Z,1.93
2019-06-20T12:30:14.968Z,2.13
2019-06-20T12:32:44.716Z,1.87
2019-06-20T12:35:13.791Z,1.57
2019-06-20T12:37:42.712Z,2.00
2019-06-20T12:40:12.350Z,2.43
2019-06-20T12:42:41.832Z,1.80
2019-06-20T12:45:11.402Z,2.00
2019-06-20T12:47:40.580Z,2.00
2019-06-20T12:50:11.223Z,2.20
2019-06-20T12:52:41.292Z,2.10
2019-06-20T12:55:11.285Z,2.00
2019-06-20T12:57:40.373Z,1.70
2019-06-20T13:00:11.549Z,1.80
2019-06-20T13:02:41.569Z,1.77
2019-06-20T13:05:10.715Z,1.90
2019-06-20T13:07:40.734Z,2.60
2019-06-20T13:10:10.329Z,2.03
2019-06-20T13:12:40.665Z,2.20
2019-06-20T13:15:09.560Z,2.50
2019-06-20T13:17:40.830Z,1.93
2019-06-20T13:20:08.791Z,2.37
2019-06-20T13:22:39.013Z,1.90
2019-06-20T13:25:08.364Z,2.13
2019-06-20T13:27:39.080Z,2.17
2019-06-20T13:30:11.339Z,2.30
2019-06-20T13:32:41.676Z,2.10
2019-06-20T13:35:12.194Z,1.87
2019-06-20T13:37:42.067Z,2.20
2019-06-20T13:40:11.804Z,1.57
2019-06-20T13:42:42.083Z,2.10
2019-06-20T13:45:16.661Z,2.30
2019-06-20T13:47:45.831Z,1.77
2019-06-20T13:50:14.479Z,2.13
2019-06-20T13:52:44.976Z,1.80
2019-06-20T13:55:13.969Z,1.90
2019-06-20T13:57:43.019Z,2.10
2019-06-20T14:00:12.825Z,2.17
2019-06-20T14:02:42.902Z,2.17
2019-06-20T14:05:12.007Z,2.40
2019-06-20T14:07:44.147Z,2.00
2019-06-20T14:10:11.218Z,2.00
2019-06-20T14:12:40.043Z,2.10
2019-06-20T14:15:10.298Z,2.07
2019-06-20T14:17:38.843Z,2.40
2019-06-20T14:20:08.397Z,2.30
2019-06-20T14:22:37.330Z,2.10
2019-06-20T14:25:06.737Z,2.50
2019-06-20T14:27:35.562Z,3.40
2019-06-20T14:30:08.968Z,5.10
2019-06-20T14:32:37.652Z,2.20
2019-06-20T14:35:07.853Z,2.90
2019-06-20T14:37:36.350Z,5.07
2019-06-20T14:40:06.955Z,2.20
2019-06-20T14:42:35.570Z,2.70
2019-06-20T14:45:06.318Z,3.87
2019-06-20T14:47:35.192Z,2.40
2019-06-20T14:50:05.546Z,1.90
2019-06-20T14:52:34.134Z,3.03
2019-06-20T14:55:02.666Z,1.90
2019-06-20T14:57:31.234Z,2.30
2019-06-20T14:59:59.704Z,1.70
2019-06-20T15:02:37.862Z,1.93
2019-06-20T15:04:58.458Z,1.60
2019-06-20T15:07:26.964Z,1.83
2019-06-20T15:09:55.500Z,2.20
2019-06-20T15:12:24.150Z,1.90
2019-06-20T15:14:53.451Z,1.83
2019-06-20T15:17:22.058Z,2.30
2019-06-20T15:19:51.426Z,1.80
2019-06-20T15:22:20.085Z,1.90
2019-06-20T15:24:51.503Z,1.83
2019-06-20T15:27:18.941Z,2.07
2019-06-20T15:29:48.840Z,2.57
2019-06-20T15:32:17.823Z,2.50
2019-06-20T15:34:47.769Z,2.03
2019-06-20T15:37:16.957Z,1.77
2019-06-20T15:39:48.494Z,1.33
2019-06-20T15:42:17.457Z,1.60
2019-06-20T15:44:47.245Z,1.30
2019-06-20T15:47:16.384Z,2.20
2019-06-20T15:49:44.925Z,1.90
2019-06-20T15:52:13.478Z,1.60
2019-06-20T15:54:42.015Z,1.90
2019-06-20T15:57:10.934Z,1.60
2019-06-20T15:59:42.093Z,2.07
2019-06-20T16:02:09.699Z,3.60
2019-06-20T16:04:38.244Z,4.40
2019-06-20T16:07:06.807Z,3.33
2019-06-20T16:09:35.821Z,1.50
2019-06-20T16:12:04.469Z,1.60
2019-06-20T16:14:32.980Z,1.50
2019-06-20T16:17:01.462Z,1.40
2019-06-20T16:19:30.053Z,1.30
2019-06-20T16:21:58.813Z,1.73
2019-06-20T16:24:27.310Z,1.50
2019-06-20T16:26:56.206Z,1.57
2019-06-20T16:29:24.764Z,1.70
2019-06-20T16:31:53.295Z,1.40
2019-06-20T16:34:21.804Z,1.23
2019-06-20T16:36:50.498Z,1.40
2019-06-20T16:39:18.998Z,1.20
2019-06-20T16:41:47.541Z,2.77
2019-06-20T16:44:16.110Z,1.40
2019-06-20T16:46:44.836Z,1.63
2019-06-20T16:49:13.399Z,1.40
2019-06-20T16:51:41.951Z,1.70
2019-06-20T16:54:10.900Z,2.80
2019-06-20T16:56:39.474Z,2.83
2019-06-20T16:59:08.036Z,1.70
2019-06-20T17:01:36.722Z,1.43
2019-06-20T17:04:05.368Z,1.60
2019-06-20T17:06:33.969Z,1.40
2019-06-20T17:09:02.627Z,1.60
2019-06-20T17:11:31.254Z,1.70
2019-06-20T17:13:59.810Z,1.53
2019-06-20T17:16:28.287Z,1.40
2019-06-20T17:18:56.869Z,1.57
2019-06-20T17:21:25.481Z,1.60
2019-06-20T17:23:54.046Z,1.57
2019-06-20T17:26:22.594Z,1.60
2019-06-20T17:28:51.154Z,1.90
2019-06-20T17:31:19.626Z,1.50
2019-06-20T17:33:57.142Z,1.63
2019-06-20T17:36:18.927Z,1.50
2019-06-20T17:38:47.651Z,1.30
2019-06-20T17:41:16.110Z,1.40
2019-06-20T17:43:44.572Z,1.87
2019-06-20T17:46:13.135Z,1.50
2019-06-20T17:48:41.669Z,1.50
2019-06-20T17:51:10.156Z,1.40
2019-06-20T17:53:39.084Z,1.57
2019-06-20T17:56:07.710Z,1.80
2019-06-20T17:58:36.288Z,1.73
2019-06-20T18:01:05.191Z,1.70
2019-06-20T18:03:33.738Z,1.90
2019-06-20T18:06:02.318Z,1.77
2019-06-20T18:08:30.844Z,2.27
2019-06-20T18:10:59.419Z,2.43
2019-06-20T18:13:27.982Z,1.97
2019-06-20T18:15:56.523Z,2.00
2019-06-20T18:18:25.141Z,2.17
2019-06-20T18:20:53.990Z,3.10
2019-06-20T18:23:24.062Z,2.63
2019-06-20T18:25:52.627Z,2.57
2019-06-20T18:28:21.166Z,1.90
2019-06-20T18:30:51.498Z,1.70
2019-06-20T18:33:23.134Z,1.23
2019-06-20T18:35:51.785Z,1.50
2019-06-20T18:38:20.282Z,1.20
2019-06-20T18:40:48.819Z,1.50
2019-06-20T18:43:17.396Z,2.50
2019-06-20T18:45:46.380Z,1.90
2019-06-20T18:48:14.975Z,2.07
2019-06-20T18:50:43.590Z,2.40
2019-06-20T18:53:12.135Z,1.90
2019-06-20T18:55:40.762Z,2.00
2019-06-20T18:58:09.230Z,1.90
2019-06-20T19:00:37.808Z,1.93
2019-06-20T19:03:06.412Z,2.10
2019-06-20T19:05:34.984Z,1.83
2019-06-20T19:08:03.586Z,1.90
2019-06-20T19:10:33.678Z,1.50
2019-06-20T19:13:02.551Z,1.67
2019-06-20T19:15:31.255Z,2.43
2019-06-20T19:17:59.802Z,2.17
2019-06-20T19:20:28.541Z,2.43
2019-06-20T19:22:57.315Z,2.50
2019-06-20T19:25:25.966Z,2.80
2019-06-20T19:27:54.575Z,2.70
2019-06-20T19:30:39.087Z,2.53
2019-06-20T19:33:07.889Z,2.43
2019-06-20T19:35:36.517Z,2.10
2019-06-20T19:38:05.157Z,1.97
2019-06-20T19:40:36.784Z,2.47
2019-06-20T19:43:05.422Z,2.60
2019-06-20T19:45:34.094Z,2.60
2019-06-20T19:48:02.675Z,2.10
2019-06-20T19:50:31.253Z,2.37
2019-06-20T19:52:59.798Z,2.47
2019-06-20T19:55:28.435Z,2.30
2019-06-20T19:57:56.907Z,2.50
2019-06-20T20:00:25.559Z,3.10
2019-06-20T20:02:54.832Z,2.67
2019-06-20T20:05:23.514Z,3.10
2019-06-20T20:07:52.206Z,2.90
2019-06-20T20:10:29.622Z,2.33
2019-06-20T20:12:58.181Z,2.30
2019-06-20T20:15:26.719Z,2.53
2019-06-20T20:17:55.293Z,2.97
2019-06-20T20:20:23.823Z,2.70
2019-06-20T20:22:52.397Z,2.37
2019-06-20T20:25:21.075Z,3.17
2019-06-20T20:27:49.577Z,2.40
2019-06-20T20:30:18.255Z,2.70
2019-06-20T20:32:46.839Z,2.40
2019-06-20T20:35:16.175Z,2.30
2019-06-20T20:37:44.738Z,3.03
2019-06-20T20:40:13.623Z,3.17
2019-06-20T20:42:43.086Z,2.73
2019-06-20T20:45:11.916Z,2.40
2019-06-20T20:47:40.830Z,2.33
2019-06-20T20:50:10.319Z,2.30
2019-06-20T20:52:38.955Z,2.30
2019-06-20T20:55:09.257Z,2.43
2019-06-20T20:57:37.754Z,3.33
2019-06-20T21:00:11.352Z,2.40
2019-06-20T21:02:39.914Z,2.33
2019-06-20T21:05:09.043Z,2.27
2019-06-20T21:07:39.247Z,2.73
2019-06-20T21:10:08.565Z,2.97
2019-06-20T21:12:37.149Z,2.50
2019-06-20T21:15:09.136Z,2.43
2019-06-20T21:17:39.651Z,3.17
2019-06-20T21:20:09.851Z,3.17
2019-06-20T21:22:38.458Z,3.30
2019-06-20T21:25:07.796Z,3.67
2019-06-20T21:27:36.390Z,4.10
2019-06-20T21:30:08.059Z,5.60
2019-06-20T21:32:37.140Z,6.10
2019-06-20T21:35:08.693Z,5.90
2019-06-20T21:37:37.302Z,5.50
2019-06-20T21:40:07.982Z,5.80
2019-06-20T21:42:36.550Z,6.00
2019-06-20T21:45:07.270Z,5.37
2019-06-20T21:47:35.887Z,4.03
2019-06-20T21:50:07.121Z,5.73
2019-06-20T21:52:35.631Z,4.60
2019-06-20T21:55:08.938Z,4.47
2019-06-20T21:57:37.504Z,4.00
2019-06-20T22:00:15.326Z,3.80
2019-06-20T22:02:43.939Z,4.37
2019-06-20T22:05:12.990Z,4.30
2019-06-20T22:07:41.907Z,4.90
2019-06-20T22:10:10.648Z,4.77
2019-06-20T22:12:39.251Z,4.50
2019-06-20T22:15:07.883Z,4.30
2019-06-20T22:17:36.496Z,4.20
2019-06-20T22:20:08.830Z,4.57
2019-06-20T22:22:37.510Z,3.13
2019-06-20T22:25:07.878Z,3.67
2019-06-20T22:27:36.486Z,3.87
2019-06-20T22:30:10.570Z,3.40
2019-06-20T22:32:39.097Z,3.67
2019-06-20T22:35:09.031Z,3.07
2019-06-20T22:37:37.640Z,3.77
2019-06-20T22:40:09.222Z,3.30
2019-06-20T22:42:37.759Z,3.90
2019-06-20T22:45:08.548Z,3.63
2019-06-20T22:47:37.635Z,3.30
2019-06-20T22:50:07.525Z,2.93
2019-06-20T22:52:36.091Z,3.33
2019-06-20T22:55:08.630Z,3.67
2019-06-20T22:57:37.228Z,3.50
2019-06-20T23:00:10.400Z,3.83
2019-06-20T23:02:39.033Z,4.20
2019-06-20T23:05:08.613Z,4.23
2019-06-20T23:07:37.195Z,3.63
2019-06-20T23:10:10.812Z,2.90
2019-06-20T23:12:37.712Z,3.90
2019-06-20T23:15:09.539Z,3.77
2019-06-20T23:17:38.110Z,3.43
2019-06-20T23:20:08.794Z,4.50
2019-06-20T23:22:37.641Z,4.07
2019-06-20T23:25:08.582Z,4.13
2019-06-20T23:27:37.066Z,4.67
2019-06-20T23:30:08.625Z,3.87
2019-06-20T23:32:37.353Z,4.23
2019-06-20T23:35:07.061Z,4.30
2019-06-20T23:37:35.688Z,4.47
2019-06-20T23:40:06.634Z,3.70
2019-06-20T23:42:35.270Z,5.97
2019-06-20T23:45:07.847Z,3.90
2019-06-20T23:47:36.481Z,4.43
2019-06-20T23:50:07.157Z,4.30
2019-06-20T23:52:40.393Z,4.93
2019-06-20T23:55:08.930Z,4.70
2019-06-20T23:57:37.415Z,3.97
